createdAt,value
2023-01-25T00:01:19.312Z,103360.41
2023-01-25T00:03:47.444Z,103345.44
2023-01-25T00:06:17.263Z,103349.84
2023-01-25T00:08:45.313Z,103352.47
2023-01-25T00:11:13.550Z,103350.69
2023-01-25T00:13:41.748Z,103344.56
2023-01-25T00:16:09.989Z,103340.09
2023-01-25T00:18:38.102Z,103342.72
2023-01-25T00:21:14.050Z,103345.34
2023-01-25T00:23:43.586Z,103340.03
2023-01-25T00:26:11.724Z,103328.53
2023-01-25T00:28:39.971Z,103332.94
2023-01-25T00:31:09.410Z,103325.84
2023-01-25T00:33:50.755Z,103322.41
2023-01-25T00:36:43.074Z,103322.44
2023-01-25T00:39:14.609Z,103316.31
2023-01-25T00:41:42.620Z,103321.59
2023-01-25T00:44:11.033Z,103326.94
2023-01-25T00:46:39.025Z,103326.13
2023-01-25T00:49:07.401Z,103322.59
2023-01-25T00:51:35.568Z,103313.78
2023-01-25T00:54:03.625Z,103319.88
2023-01-25T00:56:33.193Z,103319.84
2023-01-25T00:59:01.729Z,103311.88
2023-01-25T01:01:29.739Z,103309.09
2023-01-25T01:03:57.781Z,103315.09
2023-01-25T01:06:25.816Z,103314.09
2023-01-25T01:08:53.923Z,103306.97
2023-01-25T01:11:21.934Z,103308.72
2023-01-25T01:13:51.431Z,103310.44
2023-01-25T01:16:19.541Z,103307.72
2023-01-25T01:18:48.384Z,103317.28
2023-01-25T01:21:17.115Z,103308.34
2023-01-25T01:23:45.536Z,103309.16
2023-01-25T01:26:15.825Z,103306.44
2023-01-25T01:28:45.004Z,103311.66
2023-01-25T01:31:16.278Z,103308.13
2023-01-25T01:33:44.525Z,103301.06
2023-01-25T01:36:15.103Z,103308.16
2023-01-25T01:38:43.839Z,103312.63
2023-01-25T01:41:12.643Z,103308.28
2023-01-25T01:43:41.065Z,103316.16
2023-01-25T01:46:16.303Z,103317.88
2023-01-25T01:48:49.309Z,103307.19
2023-01-25T01:51:24.232Z,103308.00
2023-01-25T01:53:57.290Z,103321.09
2023-01-25T01:56:32.345Z,103324.47
2023-01-25T01:59:01.619Z,103320.81
2023-01-25T02:01:31.610Z,103315.41
2023-01-25T02:04:01.317Z,103326.81
2023-01-25T02:06:37.993Z,103320.56
2023-01-25T02:09:06.133Z,103326.75
2023-01-25T02:11:35.307Z,103336.38
2023-01-25T02:14:03.947Z,103335.50
2023-01-25T02:16:35.339Z,103337.22
2023-01-25T02:19:04.851Z,103334.59
2023-01-25T02:21:42.349Z,103339.94
2023-01-25T02:24:16.056Z,103334.66
2023-01-25T02:26:46.017Z,103329.44
2023-01-25T02:29:14.692Z,103332.09
2023-01-25T02:31:45.852Z,103320.53
2023-01-25T02:34:14.092Z,103323.06
2023-01-25T02:36:42.559Z,103314.13
2023-01-25T02:39:17.294Z,103329.84
2023-01-25T02:41:49.485Z,103314.72
2023-01-25T02:44:20.025Z,103304.03
2023-01-25T02:46:49.022Z,103312.78
2023-01-25T02:49:17.580Z,103311.75
2023-01-25T02:51:47.702Z,103305.47
2023-01-25T02:54:18.947Z,103308.97
2023-01-25T02:56:48.629Z,103304.66
2023-01-25T02:59:19.098Z,103302.97
2023-01-25T03:01:49.032Z,103306.50
2023-01-25T03:04:17.713Z,103307.41
2023-01-25T03:06:45.794Z,103313.56
2023-01-25T03:09:14.058Z,103312.69
2023-01-25T03:11:43.369Z,103309.97
2023-01-25T03:14:12.868Z,103309.97
2023-01-25T03:16:41.061Z,103309.03
2023-01-25T03:19:09.074Z,103309.88
2023-01-25T03:21:37.072Z,103308.09
2023-01-25T03:24:05.545Z,103308.09
2023-01-25T03:26:53.616Z,103311.63
2023-01-25T03:29:23.127Z,103313.44
2023-01-25T03:31:51.420Z,103316.16
2023-01-25T03:34:19.709Z,103315.34
2023-01-25T03:36:47.943Z,103311.78
2023-01-25T03:39:15.973Z,103314.41
2023-01-25T03:41:44.068Z,103320.50
2023-01-25T03:44:12.655Z,103310.72
2023-01-25T03:46:42.859Z,103315.97
2023-01-25T03:49:11.172Z,103314.97
2023-01-25T03:51:39.814Z,103306.09
2023-01-25T03:54:08.483Z,103304.22
2023-01-25T03:56:36.588Z,103310.38
2023-01-25T03:59:04.985Z,103305.06
2023-01-25T04:01:33.144Z,103309.50
2023-01-25T04:04:04.326Z,103317.47
2023-01-25T04:06:32.417Z,103303.31
2023-01-25T04:09:00.485Z,103308.50
2023-01-25T04:11:28.983Z,103303.13
2023-01-25T04:13:57.337Z,103302.19
2023-01-25T04:16:25.643Z,103303.00
2023-01-25T04:18:53.763Z,103307.34
2023-01-25T04:21:23.499Z,103302.88
2023-01-25T04:23:51.819Z,103297.50
2023-01-25T04:26:20.096Z,103305.44
2023-01-25T04:28:48.222Z,103308.03
2023-01-25T04:31:17.636Z,103298.25
2023-01-25T04:33:45.967Z,103295.53
2023-01-25T04:36:14.050Z,103295.50
2023-01-25T04:38:43.729Z,103296.25
2023-01-25T04:41:11.954Z,103304.19
2023-01-25T04:43:40.266Z,103302.38
2023-01-25T04:46:08.411Z,103298.81
2023-01-25T04:48:37.112Z,103297.03
2023-01-25T04:51:05.292Z,103305.81
2023-01-25T04:53:35.689Z,103297.69
2023-01-25T04:56:05.890Z,103291.47
2023-01-25T04:58:33.956Z,103287.91
2023-01-25T05:01:02.849Z,103288.75
2023-01-25T05:03:31.283Z,103273.78
2023-01-25T05:05:59.974Z,103282.53
2023-01-25T05:08:28.191Z,103278.03
2023-01-25T05:10:56.502Z,103276.25
2023-01-25T05:13:26.161Z,103271.75
2023-01-25T05:15:54.214Z,103277.94
2023-01-25T05:18:22.319Z,103276.16
2023-01-25T05:20:55.878Z,103269.91
2023-01-25T05:23:24.588Z,103262.81
2023-01-25T05:26:10.292Z,103260.94
2023-01-25T05:28:39.855Z,103252.13
2023-01-25T05:31:09.083Z,103254.72
2023-01-25T05:33:37.485Z,103251.19
2023-01-25T05:36:05.684Z,103245.88
2023-01-25T05:38:33.796Z,103242.25
2023-01-25T05:41:01.907Z,103235.16
2023-01-25T05:43:31.632Z,103231.56
2023-01-25T05:46:02.690Z,103236.00
2023-01-25T05:48:30.783Z,103227.09
2023-01-25T05:51:00.293Z,103228.03
2023-01-25T05:53:28.498Z,103217.34
2023-01-25T05:55:57.520Z,103225.22
2023-01-25T05:58:25.513Z,103227.81
2023-01-25T06:00:53.590Z,103233.03
2023-01-25T06:03:23.191Z,103228.47
2023-01-25T06:05:56.413Z,103216.91
2023-01-25T06:08:24.490Z,103216.78
2023-01-25T06:10:52.591Z,103220.31
2023-01-25T06:13:22.632Z,103214.03
2023-01-25T06:15:54.452Z,103204.19
2023-01-25T06:18:25.722Z,103215.63
2023-01-25T06:20:54.452Z,103228.81
2023-01-25T06:23:22.523Z,103217.28
2023-01-25T06:25:50.794Z,103219.97
2023-01-25T06:28:18.802Z,103207.53
2023-01-25T06:30:46.945Z,103218.91
2023-01-25T06:33:15.110Z,103207.34
2023-01-25T06:35:44.983Z,103217.88
2023-01-25T06:38:13.531Z,103212.50
2023-01-25T06:40:41.786Z,103218.63
2023-01-25T06:43:11.101Z,103220.31
2023-01-25T06:45:40.290Z,103221.09
2023-01-25T06:48:08.821Z,103225.50
2023-01-25T06:50:37.097Z,103230.69
2023-01-25T06:53:06.676Z,103227.16
2023-01-25T06:55:35.086Z,103229.75
2023-01-25T06:58:04.764Z,103231.50
2023-01-25T07:00:32.801Z,103235.03
2023-01-25T07:03:01.055Z,103240.28
2023-01-25T07:05:29.136Z,103232.38
2023-01-25T07:07:57.358Z,103234.97
2023-01-25T07:10:27.128Z,103232.31
2023-01-25T07:12:55.258Z,103228.75
2023-01-25T07:15:24.070Z,103224.25
2023-01-25T07:17:52.153Z,103223.34
2023-01-25T07:20:20.458Z,103218.94
2023-01-25T07:22:49.478Z,103222.41
2023-01-25T07:25:17.806Z,103227.66
2023-01-25T07:27:49.521Z,103223.25
2023-01-25T07:30:21.762Z,103223.19
2023-01-25T07:32:51.708Z,103223.19
2023-01-25T07:35:22.852Z,103230.19
2023-01-25T07:37:50.969Z,103224.81
2023-01-25T07:40:19.035Z,103223.00
2023-01-25T07:42:48.706Z,103218.59
2023-01-25T07:45:16.746Z,103220.25
2023-01-25T07:47:44.913Z,103225.56
2023-01-25T07:50:15.530Z,103213.19
2023-01-25T07:52:43.600Z,103221.16
2023-01-25T07:55:12.177Z,103223.81
2023-01-25T07:57:40.351Z,103220.25
2023-01-25T08:00:13.298Z,103218.38
2023-01-25T08:02:41.679Z,103211.25
2023-01-25T08:05:11.333Z,103213.84
2023-01-25T08:07:39.570Z,103199.66
2023-01-25T08:10:11.254Z,103190.75
2023-01-25T08:12:39.421Z,103202.28
2023-01-25T08:15:10.543Z,103198.69
2023-01-25T08:17:39.027Z,103199.56
2023-01-25T08:20:08.941Z,103195.88
2023-01-25T08:22:36.905Z,103195.81
2023-01-25T08:25:06.428Z,103196.69
2023-01-25T08:27:34.605Z,103186.78
2023-01-25T08:30:03.595Z,103192.81
2023-01-25T08:32:32.901Z,103195.44
2023-01-25T08:35:00.835Z,103186.44
2023-01-25T08:37:29.731Z,103190.81
2023-01-25T08:39:59.985Z,103193.34
2023-01-25T08:42:28.099Z,103194.19
2023-01-25T08:44:56.231Z,103187.03
2023-01-25T08:47:24.378Z,103180.63
2023-01-25T08:49:55.353Z,103171.69
2023-01-25T08:52:24.362Z,103171.56
2023-01-25T08:54:52.443Z,103160.88
2023-01-25T08:57:20.435Z,103159.81
2023-01-25T08:59:49.171Z,103162.44
2023-01-25T09:02:17.264Z,103151.78
2023-01-25T09:04:45.275Z,103146.41
2023-01-25T09:07:15.064Z,103151.69
2023-01-25T09:09:43.607Z,103153.34
2023-01-25T09:12:11.780Z,103156.81
2023-01-25T09:14:40.796Z,103143.41
2023-01-25T09:17:08.956Z,103147.00
2023-01-25T09:19:37.091Z,103145.19
2023-01-25T09:22:05.171Z,103134.47
2023-01-25T09:24:37.290Z,103143.28
2023-01-25T09:27:06.019Z,103138.81
2023-01-25T09:29:34.132Z,103147.59
2023-01-25T09:32:02.417Z,103136.88
2023-01-25T09:34:30.818Z,103134.91
2023-01-25T09:36:58.880Z,103126.72
2023-01-25T09:39:26.963Z,103117.63
2023-01-25T09:42:26.052Z,103119.97
2023-01-25T09:45:12.397Z,103111.72
2023-01-25T09:47:48.345Z,103112.44
2023-01-25T09:50:35.772Z,103091.72
2023-01-25T09:53:33.941Z,103103.94
2023-01-25T09:56:05.604Z,103093.97
2023-01-25T09:58:38.454Z,103089.19
2023-01-25T10:01:38.747Z,103090.75
2023-01-25T10:04:14.807Z,103087.91
2023-01-25T10:06:55.043Z,103077.94
2023-01-25T10:09:38.427Z,103073.38
2023-01-25T10:12:15.419Z,103074.13
2023-01-25T10:14:45.154Z,103064.16
2023-01-25T10:17:21.708Z,103066.56
2023-01-25T10:20:02.939Z,103064.75
2023-01-25T10:22:36.816Z,103054.84
2023-01-25T10:25:30.557Z,103054.59
2023-01-25T10:28:17.648Z,103043.72
2023-01-25T10:30:54.732Z,103046.13
2023-01-25T10:33:22.942Z,103038.63
2023-01-25T10:35:51.994Z,103032.94
2023-01-25T10:38:27.058Z,103022.03
2023-01-25T10:41:02.371Z,103032.44
2023-01-25T10:43:30.696Z,103051.88
2023-01-25T10:46:01.016Z,103060.66
2023-01-25T10:48:33.870Z,103059.75
2023-01-25T10:51:02.234Z,103064.16
2023-01-25T10:53:33.609Z,103064.03
2023-01-25T10:56:24.305Z,103057.63
2023-01-25T10:58:55.574Z,103054.69
2023-01-25T11:01:38.175Z,103056.06
2023-01-25T11:04:25.399Z,103054.78
2023-01-25T11:06:53.395Z,103065.03
2023-01-25T11:09:39.316Z,103069.03
2023-01-25T11:12:19.705Z,103074.09
2023-01-25T11:14:50.852Z,103056.84
2023-01-25T11:17:27.274Z,103041.63
2023-01-25T11:20:19.698Z,103025.41
2023-01-25T11:22:52.566Z,103021.63
2023-01-25T11:25:27.545Z,103041.00
2023-01-25T11:28:12.244Z,103043.50
2023-01-25T11:30:40.241Z,103041.66
2023-01-25T11:33:15.898Z,103037.16
2023-01-25T11:36:02.951Z,103048.75
2023-01-25T11:38:31.021Z,103043.50
2023-01-25T11:41:07.509Z,103049.16
2023-01-25T11:43:58.935Z,103051.38
2023-01-25T11:46:40.499Z,103043.88
2023-01-25T11:49:27.552Z,103036.22
2023-01-25T11:52:07.139Z,103039.81
2023-01-25T11:54:49.794Z,103035.34
2023-01-25T11:57:44.390Z,103023.59
2023-01-25T12:00:40.785Z,103017.88
2023-01-25T12:03:31.807Z,103014.88
2023-01-25T12:06:10.651Z,103018.94
2023-01-25T12:08:54.904Z,103010.53
2023-01-25T12:11:35.972Z,103012.88
2023-01-25T12:14:16.523Z,103010.88
2023-01-25T12:17:07.552Z,103015.06
2023-01-25T12:19:49.340Z,103022.88
2023-01-25T12:22:53.974Z,103014.88
2023-01-25T12:25:30.501Z,103004.34
2023-01-25T12:28:12.161Z,103000.72
2023-01-25T12:30:52.586Z,102999.00
2023-01-25T12:33:26.619Z,102985.75
2023-01-25T12:36:02.507Z,102968.75
2023-01-25T12:38:41.180Z,102952.69
2023-01-25T12:41:22.581Z,102931.28
2023-01-25T12:43:57.615Z,102913.38
2023-01-25T12:46:29.592Z,102911.34
2023-01-25T12:49:02.889Z,102908.28
2023-01-25T12:51:37.684Z,102909.50
2023-01-25T12:54:18.992Z,102903.63
2023-01-25T12:56:54.504Z,102905.78
2023-01-25T12:59:30.777Z,102893.88
2023-01-25T13:02:12.084Z,102884.69
2023-01-25T13:04:54.459Z,102883.75
2023-01-25T13:07:29.501Z,102888.16
2023-01-25T13:10:03.954Z,102879.16
2023-01-25T13:12:52.230Z,102871.84
2023-01-25T13:15:37.505Z,102872.56
2023-01-25T13:18:39.642Z,102865.44
2023-01-25T13:21:12.739Z,102858.97
2023-01-25T13:23:47.349Z,102859.78
2023-01-25T13:26:47.310Z,102864.81
2023-01-25T13:29:49.279Z,102856.63
2023-01-25T13:32:58.910Z,102845.56
2023-01-25T13:35:30.087Z,102837.13
2023-01-25T13:38:04.065Z,102840.50
2023-01-25T13:40:34.735Z,102839.53
2023-01-25T13:43:07.045Z,102836.72
2023-01-25T13:45:37.431Z,102828.53
2023-01-25T13:48:14.143Z,102819.28
2023-01-25T13:50:48.315Z,102822.72
2023-01-25T13:53:21.730Z,102825.97
2023-01-25T13:55:51.594Z,102828.53
2023-01-25T13:58:24.262Z,102826.56
2023-01-25T14:00:57.309Z,102814.09
2023-01-25T14:03:29.240Z,102809.34
2023-01-25T14:05:59.447Z,102799.22
2023-01-25T14:08:28.232Z,102795.59
2023-01-25T14:10:57.495Z,102796.81
2023-01-25T14:13:27.140Z,102791.47
2023-01-25T14:15:58.523Z,102788.41
2023-01-25T14:18:32.262Z,102789.91
2023-01-25T14:21:17.432Z,102791.13
2023-01-25T14:23:46.231Z,102789.13
2023-01-25T14:26:20.609Z,102797.88
2023-01-25T14:29:01.123Z,102789.13
2023-01-25T14:31:36.100Z,102782.09
2023-01-25T14:34:06.212Z,102770.63
2023-01-25T14:36:35.396Z,102767.16
2023-01-25T14:39:05.018Z,102765.50
2023-01-25T14:41:38.708Z,102767.84
2023-01-25T14:44:14.269Z,102775.34
2023-01-25T14:46:42.945Z,102774.06
2023-01-25T14:49:25.367Z,102776.66
2023-01-25T14:51:59.531Z,102774.66
2023-01-25T14:54:30.423Z,102763.13
2023-01-25T14:57:01.227Z,102772.84
2023-01-25T14:59:38.430Z,102760.44
2023-01-25T15:02:20.054Z,102762.19
2023-01-25T15:05:08.036Z,102764.25
2023-01-25T15:07:46.187Z,102772.66
2023-01-25T15:10:21.229Z,102776.59
2023-01-25T15:13:12.942Z,102775.03
2023-01-25T15:15:54.915Z,102766.00
2023-01-25T15:18:47.673Z,102765.34
2023-01-25T15:21:17.632Z,102761.88
2023-01-25T15:23:48.096Z,102770.88
2023-01-25T15:26:20.868Z,102756.50
2023-01-25T15:28:49.826Z,102759.28
2023-01-25T15:31:22.225Z,102745.59
2023-01-25T15:33:50.369Z,102752.00
2023-01-25T15:36:18.723Z,102744.16
2023-01-25T15:38:47.933Z,102752.19
2023-01-25T15:41:18.477Z,102742.44
2023-01-25T15:43:46.704Z,102744.84
2023-01-25T15:46:19.468Z,102753.06
2023-01-25T15:48:50.601Z,102750.47
2023-01-25T15:51:18.867Z,102745.25
2023-01-25T15:53:47.262Z,102746.25
2023-01-25T15:56:19.113Z,102752.78
2023-01-25T15:58:50.617Z,102745.66
2023-01-25T16:01:18.990Z,102740.41
2023-01-25T16:03:48.409Z,102742.31
2023-01-25T16:06:36.759Z,102730.72
2023-01-25T16:09:13.302Z,102736.09
2023-01-25T16:11:42.434Z,102736.09
2023-01-25T16:14:10.471Z,102719.09
2023-01-25T16:16:42.266Z,102723.94
2023-01-25T16:19:14.534Z,102720.94
2023-01-25T16:21:42.845Z,102720.06
2023-01-25T16:24:12.388Z,102721.03
2023-01-25T16:26:45.881Z,102722.00
2023-01-25T16:29:13.917Z,102720.44
2023-01-25T16:31:42.073Z,102719.66
2023-01-25T16:34:10.286Z,102702.63
2023-01-25T16:36:40.309Z,102703.75
2023-01-25T16:39:14.843Z,102709.09
2023-01-25T16:41:42.864Z,102708.25
2023-01-25T16:44:11.065Z,102717.25
2023-01-25T16:46:39.452Z,102713.69
2023-01-25T16:49:10.266Z,102708.50
2023-01-25T16:51:40.474Z,102702.28
2023-01-25T16:54:11.739Z,102713.97
2023-01-25T16:56:40.074Z,102713.06
2023-01-25T16:59:11.695Z,102711.88
2023-01-25T17:01:41.595Z,102705.97
2023-01-25T17:04:10.469Z,102698.91
2023-01-25T17:06:44.226Z,102698.13
2023-01-25T17:09:23.008Z,102692.84
2023-01-25T17:11:54.806Z,102684.78
2023-01-25T17:14:24.084Z,102680.50
2023-01-25T17:16:53.522Z,102692.84
2023-01-25T17:19:21.934Z,102696.47
2023-01-25T17:21:51.726Z,102693.78
2023-01-25T17:24:22.489Z,102694.84
2023-01-25T17:26:51.194Z,102691.28
2023-01-25T17:29:19.328Z,102698.41
2023-01-25T17:31:47.582Z,102698.41
2023-01-25T17:34:19.379Z,102691.13
2023-01-25T17:36:50.495Z,102701.94
2023-01-25T17:39:22.794Z,102693.63
2023-01-25T17:41:52.266Z,102696.31
2023-01-25T17:44:22.178Z,102693.03
2023-01-25T17:46:51.355Z,102691.03
2023-01-25T17:49:20.178Z,102689.22
2023-01-25T17:51:48.262Z,102681.00
2023-01-25T17:54:16.433Z,102679.97
2023-01-25T17:56:45.709Z,102678.50
2023-01-25T17:59:13.754Z,102667.59
2023-01-25T18:01:42.940Z,102675.53
2023-01-25T18:04:13.289Z,102664.81
2023-01-25T18:06:41.694Z,102664.81
2023-01-25T18:09:12.840Z,102671.06
2023-01-25T18:11:41.254Z,102679.09
2023-01-25T18:14:15.128Z,102662.31
2023-01-25T18:16:43.751Z,102666.03
2023-01-25T18:19:12.299Z,102661.88
2023-01-25T18:21:42.060Z,102659.31
2023-01-25T18:24:25.112Z,102659.72
2023-01-25T18:26:55.439Z,102665.28
2023-01-25T18:29:50.631Z,102667.41
2023-01-25T18:32:18.648Z,102658.78
2023-01-25T18:34:46.892Z,102657.06
2023-01-25T18:37:23.376Z,102652.06
2023-01-25T18:39:52.958Z,102651.75
2023-01-25T18:42:22.479Z,102644.00
2023-01-25T18:44:51.984Z,102649.78
2023-01-25T18:47:22.613Z,102649.16
2023-01-25T18:49:52.421Z,102652.00
2023-01-25T18:52:21.954Z,102664.00
2023-01-25T18:54:50.267Z,102674.00
2023-01-25T18:57:18.981Z,102676.69
2023-01-25T18:59:47.427Z,102674.25
2023-01-25T19:02:18.280Z,102670.81
2023-01-25T19:04:46.749Z,102677.03
2023-01-25T19:07:14.907Z,102673.53
2023-01-25T19:09:43.675Z,102668.44
2023-01-25T19:12:12.145Z,102672.03
2023-01-25T19:14:40.307Z,102680.25
2023-01-25T19:17:08.978Z,102676.09
2023-01-25T19:19:38.540Z,102661.03
2023-01-25T19:22:06.868Z,102661.28
2023-01-25T19:24:34.920Z,102649.09
2023-01-25T19:27:03.559Z,102650.19
2023-01-25T19:29:31.654Z,102652.25
2023-01-25T19:32:00.008Z,102665.94
2023-01-25T19:34:28.208Z,102669.63
2023-01-25T19:36:58.287Z,102677.03
2023-01-25T19:39:26.344Z,102672.00
2023-01-25T19:41:54.788Z,102686.63
2023-01-25T19:44:24.660Z,102676.09
2023-01-25T19:46:52.727Z,102679.78
2023-01-25T19:49:22.378Z,102665.78
2023-01-25T19:51:53.331Z,102674.03
2023-01-25T19:54:24.431Z,102670.72
2023-01-25T19:56:52.804Z,102672.63
2023-01-25T19:59:25.105Z,102678.97
2023-01-25T20:01:53.749Z,102683.63
2023-01-25T20:04:23.880Z,102682.09
2023-01-25T20:06:53.072Z,102692.94
2023-01-25T20:09:27.801Z,102698.44
2023-01-25T20:11:56.882Z,102687.97
2023-01-25T20:14:24.972Z,102681.75
2023-01-25T20:16:54.044Z,102678.44
2023-01-25T20:19:22.342Z,102669.56
2023-01-25T20:21:50.903Z,102673.31
2023-01-25T20:24:19.366Z,102676.00
2023-01-25T20:26:49.248Z,102685.94
2023-01-25T20:29:17.295Z,102700.41
2023-01-25T20:31:47.049Z,102709.34
2023-01-25T20:34:17.198Z,102701.50
2023-01-25T20:36:46.225Z,102704.31
2023-01-25T20:39:16.632Z,102700.03
2023-01-25T20:41:46.545Z,102706.34
2023-01-25T20:44:18.675Z,102722.50
2023-01-25T20:46:46.930Z,102720.81
2023-01-25T20:49:16.894Z,102717.28
2023-01-25T20:51:45.504Z,102724.47
2023-01-25T20:54:13.777Z,102730.91
2023-01-25T20:56:48.063Z,102728.09
2023-01-25T20:59:19.440Z,102747.84
2023-01-25T21:01:51.099Z,102759.47
2023-01-25T21:04:19.274Z,102754.31
2023-01-25T21:06:47.983Z,102745.47
2023-01-25T21:09:19.340Z,102759.84
2023-01-25T21:11:48.864Z,102747.56
2023-01-25T21:14:24.354Z,102745.88
2023-01-25T21:16:55.588Z,102744.16
2023-01-25T21:19:28.473Z,102746.03
2023-01-25T21:21:56.882Z,102734.34
2023-01-25T21:24:25.233Z,102742.50
2023-01-25T21:26:53.947Z,102749.63
2023-01-25T21:29:25.619Z,102766.47
2023-01-25T21:31:54.741Z,102757.50
2023-01-25T21:34:23.512Z,102747.13
2023-01-25T21:36:54.631Z,102759.94
2023-01-25T21:39:23.185Z,102771.63
2023-01-25T21:41:51.522Z,102760.34
2023-01-25T21:44:37.417Z,102749.00
2023-01-25T21:47:28.752Z,102750.06
2023-01-25T21:50:12.526Z,102760.72
2023-01-25T21:52:43.563Z,102747.53
2023-01-25T21:55:11.975Z,102762.72
2023-01-25T21:57:46.996Z,102765.28
2023-01-25T22:00:17.235Z,102773.34
2023-01-25T22:02:47.193Z,102746.72
2023-01-25T22:05:15.932Z,102744.25
2023-01-25T22:07:44.015Z,102743.38
2023-01-25T22:10:12.877Z,102755.94
2023-01-25T22:12:41.059Z,102764.94
2023-01-25T22:15:09.783Z,102768.59
2023-01-25T22:17:37.793Z,102768.72
2023-01-25T22:20:08.758Z,102777.78
2023-01-25T22:22:36.937Z,102779.75
2023-01-25T22:25:05.388Z,102775.28
2023-01-25T22:27:39.329Z,102773.47
2023-01-25T22:30:08.847Z,102762.81
2023-01-25T22:32:40.097Z,102760.22
2023-01-25T22:35:10.284Z,102753.97
2023-01-25T22:37:38.920Z,102749.59
2023-01-25T22:40:10.056Z,102759.50
2023-01-25T22:42:38.425Z,102769.25
2023-01-25T22:45:07.902Z,102753.38
2023-01-25T22:47:36.092Z,102764.91
2023-01-25T22:50:04.223Z,102771.09
2023-01-25T22:52:33.761Z,102756.84
2023-01-25T22:55:01.946Z,102764.78
2023-01-25T22:57:29.997Z,102760.44
2023-01-25T22:59:58.251Z,102772.72
2023-01-25T23:02:26.318Z,102769.13
2023-01-25T23:04:54.693Z,102760.25
2023-01-25T23:07:22.880Z,102771.75
2023-01-25T23:09:52.604Z,102761.06
2023-01-25T23:12:21.903Z,102755.00
2023-01-25T23:14:53.107Z,102769.50
2023-01-25T23:17:39.666Z,102766.41
2023-01-25T23:20:10.685Z,102772.94
2023-01-25T23:22:41.761Z,102755.59
2023-01-25T23:25:12.334Z,102757.78
2023-01-25T23:27:40.644Z,102758.84
2023-01-25T23:30:11.448Z,102759.09
2023-01-25T23:32:39.786Z,102766.41
2023-01-25T23:35:08.645Z,102759.50
2023-01-25T23:37:36.962Z,102750.72
2023-01-25T23:40:09.575Z,102756.09
2023-01-25T23:42:40.362Z,102749.13
2023-01-25T23:45:10.898Z,102754.47
2023-01-25T23:47:39.203Z,102757.09
2023-01-25T23:50:08.801Z,102757.81
2023-01-25T23:52:37.896Z,102763.03
2023-01-25T23:55:06.892Z,102768.22
2023-01-25T23:57:35.083Z,102757.50
